Etusivu
METAR-TAF:

METAR-TAF

Lentoasemat :

Salak

Maroua, Kamerun

Leveyspiiri: 10-27N, Pituuspiiri: 014-15E, korkeus merenpinnasta: 423 m

Tämänhetkinen sää

Tämä raportti tehtiin 3 tuntia ja 33 minuuttia sitten, kello 16.00 UTC
Tuuli 6 kn koillisesta
Lämpötila 33°C
Kosteus 16%
Ilmanpaine 1011 hPa
Näkyvyys 10 km tai enemmän
ei pilviä alle 1500 m:ssä eikä cumulonimbus-pilviä

METAR: FKKL 031600Z 04006KT CAVOK 33/04 Q1011

Aika: 20:33 (19:33 UTC)

Sääennuste

Tämä raportti tehtiin 14 tuntia ja 33 minuuttia sitten, kello 05.00 UTC
Ennuste voimassa 03. päivästä klo 06 UTC - 03. päivään klo 18 UTC
Tuuli 8 kn pohjoisesta/koillisesta
Näkyvyys 10 km tai enemmän
ei pilviä alle 1500 m:ssä eikä cumulonimbus-pilviä

TAF: FKKL 030500Z 0306/0318 03008KT CAVOK

Säähavainnot ja -ennusteet yli 4000 lentoasemalta (METAR- ja TAF-raportit).

Käytössä olevat sääasemat on merkitty karttaan keltaisilla ja punaisilla pisteillä.

Aseta hiiri pisteen päälle nähdäksesi sääaseman nimen.

Klikkaa sitten nähdäksesi säähavainnot ja -ennusteet.

Kartan vaihtaminen: klikkaa mustalla rastilla varustettuja vihreitä pisteitä, niin voit zoomata sisään; viivalla varustettua vihreää pistettä, niin voit zoomata ulos tai vihreitä nuolia, niin pääset viereisille kartoille.


METAR-TAF: